Tiempo atmosférico en la estación meteorológica de Baza, Granada (801 m.)



Fecha
DESCASC
Temp. máxima en grados centígrados (hora)
DESCASC
Temp. mínima en grados centígrados (hora)
DESCASC
Temp. media en grados centígrados
DESCASC
Racha de viento máxima en m/sg (hora)
DESCASC
Velocidad máxima media en intervalos de 10 minutos(hora)
DESCASC
Precipitaciones diarias en mm
DESCASC
Precipitaciones de 00:00 a 06:00 en mm
DESCASC
Precipitaciones de 06:00 a 12:00 en mm
DESCASC
Precipitaciones de 12:00 a 18:00 en mm
DESCASC
Precipitaciones de 18:00 a 24:00 en mm
DESCASC
18-01-2018 16.2 (14:50) -0.9 (08:00) 7.7 7.78 (15:30) 5 (15:30) 0.2 0 0.2 0 0
17-01-2018 15.4 (16:00) -3.4 (08:40) 6 4.17 (12:20) 3.06 (12:20) 0 0 0 0 0
16-01-2018 12.9 (16:40) -3.5 (06:30) 4.7 8.61 (14:40) 5.28 (14:40) 0 0 0 0 0
15-01-2018 8.8 (16:50) -0.3 (23:59) 4.3 6.67 (01:10) 4.17 (01:40) 0 0 0 0 0
14-01-2018 9.3 (13:50) 2.3 (00:00) 5.8 7.22 (20:50) 4.72 (20:40) 1.4 0 0 1.2 0.2
13-01-2018 9.5 (16:50) -2.5 (-00:0) 3.5 8.33 (21:20) 4.72 (19:20) 0 0 0 0 0
12-01-2018 10.5 (17:10) -0.9 (-00:0) 4.8 8.61 (14:00) 5.56 (13:40) 0 0 0 0 0
11-01-2018 8.3 (16:20) 2.7 (00:00) 5.5 15.56 (17:00) 9.17 (16:20) 1.4 0.2 0 1.2 0
10-01-2018 11.3 (14:10) 3.1 (00:00) 7.2 14.44 (23:10) 8.61 (22:50) 6.4 5.8 0.2 0 0.4
09-01-2018 6.7 (16:10) -3.6 (-00:0) 1.5 6.11 (18:00) 3.61 (17:30) 1.2 0 0 0 1.2
08-01-2018 10.2 (17:10) -2.1 (-00:0) 4 4.72 (12:10) 3.06 (20:40) 0 0 0 0 0
07-01-2018 7.5 (14:30) -0.6 (-00:0) 3.4 9.72 (00:40) 5 (00:40) 0 0 0 0 0
06-01-2018 8.1 (11:50) -0.1 (00:00) 4 12.78 (15:10) 7.5 (15:10) 3 0 0 2.8 0.2
05-01-2018 13 (14:30) 1.8 (00:00) 7.4 11.11 (09:40) 7.5 (09:40) 0 0 0 0 0
04-01-2018 13.9 (15:40) 4.5 (08:10) 9.2 11.94 (22:50) 7.78 (22:50) 0 0 0 0 0
03-01-2018 11.6 (17:10) -0.7 (-00:0) 5.5 5.56 (01:40) 3.06 (01:40) 0 0 0 0 0
02-01-2018 11.5 (15:40) 2.3 (00:00) 6.9 12.78 (12:20) 8.89 (12:10) 0 0 0 0 0
01-01-2018 14.1 (15:20) 0 (00:00) 7.1 12.5 (21:50) 8.33 (21:50) 0 0 0 0 0
31-12-2017 12.8 (15:00) 0.4 (00:00) 6.6 12.5 (23:59) 7.22 (23:00) 0 0 0 0 0
30-12-2017 16.9 (16:10) 3.2 (00:00) 10 6.94 (16:50) 4.17 (16:50) 0 0 0 0 0
29-12-2017 14.4 (16:40) 6.2 (00:00) 10.3 11.11 (14:00) 7.22 (14:00) 0.8 0.8 0 0 0
28-12-2017 13.6 (12:20) 6.4 (00:00) 10 16.11 (12:10) 9.72 (22:00) 0 0 0 0 0
27-12-2017 12 (14:00) 6.2 (00:00) 9.1 19.44 (03:20) 12.22 (12:50) 0.6 0 0.6 0 0
26-12-2017 12 (11:40) 5.8 (00:00) 8.9 13.61 (23:40) 7.78 (12:10) 0.2 0 0 0.2 0
25-12-2017 10.9 (15:30) -1.7 (-00:0) 4.6 5.56 (23:59) 3.33 (21:30) 0.2 0 0.2 0 0
24-12-2017 14.3 (14:40) 1.1 (00:00) 7.7 7.78 (12:00) 5 (12:00) 0 0 0 0 0
23-12-2017 14.6 (14:10) -2.8 (-00:0) 5.9 8.89 (16:00) 5.83 (16:00) 0 0 0 0 0
22-12-2017 14.1 (15:10) -3.1 (-00:0) 5.5 10.56 (17:40) 5.56 (16:10) 0 0 0 0 0

Gráficas

Temp. máximas Temp. mínimas Temp. medias Precipitaciones Rachas de viento máximas Velocidades máximas media en intervalos de 10 minutos

Datos horarios

Fecha y hora oficial Temperatura (ºC) Velocidad del viento (km/h) Dirección del viento Racha (km/h) Dirección de racha Precipitación (mm) Presión (hPa) Tendencia (hPa) Humedad (%)
2018-01-20 23:00:00 8.6 13 Norte 25 Norte 0 937.1 0.7 55
2018-01-20 22:00:00 9.7 11 Norte 28 Nordeste 0 936.8 1.1 50
2018-01-20 21:00:00 8.8 6 Este 25 Oeste 0 937.2 2.2 59
2018-01-20 20:00:00 9.8 11 Noroeste 21 Sudeste 0 936.4 1.6 51
2018-01-20 19:00:00 10.7 6 Sur 33 Oeste 0 935.7 1.1 41
2018-01-20 18:00:00 13.1 19 Oeste 30 Oeste 0 935 0.1 34
2018-01-20 17:00:00 14.2 22 Oeste 33 Oeste 0 934.8 -0.9 31
2018-01-20 16:00:00 14.5 19 Oeste 34 Oeste 0 934.6 -1.7 31
2018-01-20 15:00:00 14.7 23 Oeste 37 Oeste 0 934.9 -2 34
2018-01-20 14:00:00 13.5 22 Oeste 37 Oeste 0 935.7 -1.5 43
2018-01-20 13:00:00 12.8 22 Oeste 33 Oeste 0 936.3 0.1 48
2018-01-20 12:00:00 10.4 6 Noroeste 15 Oeste 0 936.9 0.8 64
2018-01-20 11:00:00 6.1 8 Nordeste 15 Nordeste 0 937.2 2.2 79
2018-01-20 10:00:00 3.3 2 Este 7 Sudeste 0 936.2 1.4 87
2018-01-20 09:00:00 1 5 Sudoeste 8 Sudeste 0 936.1 2.2 93
2018-01-20 08:00:00 0.6 7 Sudeste 12 Sudeste 0 935 1.3 88
2018-01-20 07:00:00 1.8 7 Sur 12 Sudeste 0 934.8 0.6 85
2018-01-20 06:00:00 4.9 9 Norte 22 Noroeste 0 933.9 0.2 77
2018-01-20 05:00:00 6.6 10 Noroeste 20 Noroeste 0 933.7 0.1 72
2018-01-20 04:00:00 6.4 10 Oeste 26 Oeste 0 934.2 0.8 73
2018-01-20 03:00:00 7.4 17 Oeste 26 Oeste 0 933.7 0.4 66
2018-01-20 02:00:00 7.2 15 Oeste 24 Oeste 0 933.6 0.1 68
2018-01-20 01:00:00 7.6 12 Oeste 22 Oeste 0 933.4 0.9 68
2018-01-20 00:00:00 8.4 13 Oeste 27 Oeste 0 933.3 1.3 65
2018-01-19 23:00:00 8.9 15 Oeste 30 Oeste 0 933.5 2.3 64
2018-01-19 22:00:00 9.2 19 Oeste 31 Oeste 0 932.5 2.3 64
2018-01-19 21:00:00 9.1 12 Oeste 31 Oeste 0 932 1.9 64
2018-01-19 20:00:00 9.2 12 Oeste 22 Oeste 0 931.2 2.1 63
2018-01-19 19:00:00 10.3 12 Oeste 19 Oeste 0 930.2 1.3 57
2018-01-19 18:00:00 12.4 13 Oeste 20 Oeste 0 930.1 1.3 47
2018-01-19 17:00:00 13.6 9 Noroeste 18 Oeste 0 929.1 0.4 45
2018-01-19 16:00:00 13 12 Oeste 17 Norte 0 928.9 -0.4 49
2018-01-19 15:00:00 12.5 4 Noroeste 10 Noroeste 0 928.8 -1.1 51
2018-01-19 14:00:00 11.4 2 Norte 6 Noroeste 0 928.7 -1 58
2018-01-19 13:00:00 9 2 Noroeste 10 Norte 0 929.3 0.1 72
2018-01-19 12:00:00 7.6 8 Norte 11 Noroeste 0 929.9 1.3 82
2018-01-19 11:00:00 6.7 3 Este 8 Sur 0 929.7 1.7 90
2018-01-19 10:00:00 5 5 Sudoeste 7 Sudoeste 0 929.2 2 96
2018-01-19 09:00:00 4.4 3 Noroeste 8 Sur 0 928.6 1.5 96
2018-01-19 08:00:00 4.1 7 Sur 8 Sur 0 928 0.8 96
2018-01-19 07:00:00 4.4 5 Sudeste 10 Sudoeste 0 927.2 -0.1 95
2018-01-19 06:00:00 4.3 5 Este 9 Este 0 927.1 -1 94
2018-01-19 05:00:00 4.8 4 Sudeste 6 Sudoeste 0 927.2 -1.3 93
2018-01-19 04:00:00 5 3 Sur 7 Sudoeste 0 927.3 -1.8 89
2018-01-19 03:00:00 5.5 2 Nordeste 9 Nordeste 0 928.1 -1.1 88
2018-01-19 02:00:00 6.2 3 Este 12 Sudeste 0 928.5 -0.6 90
2018-01-19 01:00:00 6.4 7 Sudeste 11 Este 0 929.1 0 88
2018-01-19 00:00:00 6.4 8 Este 12 Este 0 929.2 -0.3 86
2018-01-18 23:00:00 6.7 7 Sudeste 12 Sudeste 0 929.1 -0.5 84
2018-01-18 22:00:00 7.1 6 Este 12 Sudeste 0 929.1 -0.3 75
2018-01-18 21:00:00 8.3 10 Sur 17 Sudeste 0 929.5 -0.1 68
2018-01-18 20:00:00 8.5 9 Sudeste 14 Sudeste 0 929.6 -0.3 61
2018-01-18 19:00:00 9.5 9 Sur 15 Sur 0 929.4 -0.2 56
2018-01-18 18:00:00 10.8 7 Sudeste 22 Sudeste 0 929.6 0 52
2018-01-18 17:00:00 12.2 14 Sudeste 26 Sudeste 0 929.9 -0.7 45
2018-01-18 16:00:00 13.6 13 Sudeste 28 Sudeste 0 929.6 -2.2 44
2018-01-18 15:00:00 15.6 4 Este 14 Este 0 929.6 -3.5 48
2018-01-18 14:00:00 13 9 Norte 19 Norte 0 930.6 -3 57
2018-01-18 13:00:00 11.5 13 Norte 19 Norte 0 931.8 -1.8 64
2018-01-18 12:00:00 9.4 9 Norte 14 Norte 0 933.1 -0.1 73
2018-01-18 11:00:00 5.6 6 Norte 9 Norte 0.2 933.6 0.7 89
2018-01-18 10:00:00 3.1 0 Calma 8 Este 0 933.6 0.8 98
2018-01-18 09:00:00 -0.3 4 Nordeste 10 Este 0 933.2 0.2 98
2018-01-18 08:00:00 -0.9 6 Este 11 Sudeste 0 932.9 -0.1 97
2018-01-18 07:00:00 -0.2 7 Este 11 Este 0 932.8 -0.2 97
2018-01-18 06:00:00 0.8 9 Este 13 Este 0 933 0 97
2018-01-18 05:00:00 0.2 6 Este 12 Este 0 933 -0.1 95
2018-01-18 04:00:00 0.8 6 Sudeste 14 Sudeste 0 933 -0.3 95
2018-01-18 03:00:00 -0.6 5 Sur 8 Sur 0 933 -0.3 96
2018-01-18 02:00:00 0 3 Oeste 5 Sudeste 0 933.1 -0.2 94
2018-01-18 01:00:00 0.7 0 Calma 5 Nordeste 0 933.3 0.1 92
2018-01-18 00:00:00 1.6 4 Norte 12 Sudeste 0 933.3 0.5 90
2018-01-17 23:00:00 1.9 5 Sudeste 10 Sudeste 0 933.3 0.7 87
2018-01-17 22:00:00 3.1 5 Sur 13 Sudeste 0 933.2 1.1 86
2018-01-17 21:00:00 4.4 10 Sudeste 13 Sur 0 932.8 0.9 81
2018-01-17 20:00:00 6.3 7 Sudeste 11 Sur 0 932.6 0.9 81
2018-01-17 19:00:00 9.8 8 Sur 11 Sur 0 932.1 0.4 70
2018-01-17 18:00:00 14.1 4 Noroeste 10 Norte 0 931.9 -0.2 55
2018-01-17 17:00:00 14.9 3 Norte 10 Norte 0 931.7 -1.1 53
2018-01-17 16:00:00 15.4 3 Sur 9 Norte 0 931.7 -2.3 49
2018-01-17 15:00:00 13.8 3 Norte 12 Norte 0 932.1 -2.6 52
2018-01-17 14:00:00 11.7 5 Norte 9 Norte 0 932.8 -1.9 57
2018-01-17 13:00:00 9.6 3 Oeste 15 Norte 0 934 -0.4 63
2018-01-17 12:00:00 6.8 6 Norte 11 Norte 0 934.7 0.8 71
2018-01-17 11:00:00 3.3 3 Noroeste 8 Noroeste 0 934.7 1.2 95
2018-01-17 10:00:00 -0.2 4 Sur 9 Sudeste 0 934.4 0.7 98
2018-01-17 09:00:00 -3.1 0 Calma 5 Sur 0 933.9 0.3 97
2018-01-17 08:00:00 -2.8 4 Oeste 6 Oeste 0 933.5 -0.3 97
2018-01-17 07:00:00 -2.2 4 Sudoeste 9 Sudeste 0 933.7 -0.3 97
2018-01-17 06:00:00 -2.2 8 Sur 9 Sur 0 933.6 -0.9 96
2018-01-17 05:00:00 -1.8 4 Sur 7 Sur 0 933.8 -1.4 95
2018-01-17 04:00:00 -1.5 3 Sur 7 Sudeste 0 934 -1.4 95
2018-01-17 03:00:00 -0.6 6 Noroeste 10 Sur 0 934.5 -1.3 95
2018-01-17 02:00:00 0 2 Noroeste 9 Sudeste 0 935.2 -0.6 93
2018-01-17 01:00:00 0.7 6 Sur 9 Sur 0 935.4 -0.4 90
2018-01-17 00:00:00 1.6 6 Sur 9 Sur 0 935.8 0 88
2018-01-16 23:00:00 2.5 3 Sur 8 Sur 0 935.8 0.2 85
2018-01-16 22:00:00 4.4 6 Sudoeste 11 Oeste 0 935.8 0.5 74
2018-01-16 21:00:00 6.2 5 Sudoeste 11 Noroeste 0 935.8 0.7 65
2018-01-16 20:00:00 8.2 10 Oeste 23 Oeste 0 935.6 0.3 53
2018-01-16 19:00:00 9.9 13 Oeste 23 Oeste 0 935.3 -0.4 48
2018-01-16 18:00:00 11.6 9 Noroeste 22 Oeste 0 935.1 -1.1 44
2018-01-16 17:00:00 12.8 15 Oeste 28 Oeste 0 935.3 -1.8 39
2018-01-16 16:00:00 12.7 18 Oeste 30 Noroeste 0 935.7 -2.4 35
2018-01-16 15:00:00 12.1 15 Noroeste 31 Noroeste 0 936.2 -2.9 39
2018-01-16 14:00:00 10 9 Norte 18 Noroeste 0 937.1 -1.8 55
2018-01-16 13:00:00 7.1 4 Noroeste 11 Noroeste 0 938.1 -0.8 69
2018-01-16 12:00:00 3.7 5 Norte 13 Norte 0 939.1 0.8 86
2018-01-16 11:00:00 1 3 Sur 6 Sur 0 938.9 0.9 99
2018-01-16 10:00:00 -1.3 0 Calma 6 Sudeste 0 938.9 1.1 99
2018-01-16 09:00:00 -2.8 3 Sudeste 7 Sudeste 0 938.3 1.1 99
2018-01-16 08:00:00 -2.6 4 Sur 6 Sur 0 938 0.6 99
2018-01-16 07:00:00 -2.7 3 Sudoeste 7 Oeste 0 937.8 0.2 98
2018-01-16 06:00:00 -3.3 5 Sudeste 8 Sudeste 0 937.2 -0.5 97
2018-01-16 05:00:00 -2.7 3 Sudeste 10 Sur 0 937.4 -0.2 97
2018-01-16 04:00:00 -2.5 7 Sur 10 Sur 0 937.6 -0.4 97
2018-01-16 03:00:00 -1.9 5 Sur 6 Sur 0 937.7 -0.4 97
2018-01-16 02:00:00 -1.8 3 Sudeste 9 Oeste 0 937.6 -0.4 96
2018-01-16 01:00:00 -0.7 5 Oeste 8 Sur 0 938 0.6 96
2018-01-16 00:00:00 -0.3 4 Sudeste 11 Sudeste 0 938.1 1.3 95
2018-01-15 23:00:00 0.1 4 Sudeste 11 Sudeste 0 938 2 96
2018-01-15 22:00:00 0.4 8 Sudeste 12 Sudeste 0 937.4 2.1 94
2018-01-15 21:00:00 0.9 6 Sudeste 8 Sudeste 0 936.8 2 90
2018-01-15 20:00:00 2.8 4 Sur 8 Sudeste 0 936 1.7 84
2018-01-15 19:00:00 5.5 6 Oeste 8 Oeste 0 935.3 1.4 76
2018-01-15 18:00:00 7.9 5 Noroeste 13 Norte 0 934.8 1.1 64
2018-01-15 17:00:00 8.4 10 Norte 15 Norte 0 934.3 0.9 61
2018-01-15 16:00:00 7.3 6 Norte 13 Norte 0 933.9 -0.3 68
2018-01-15 15:00:00 7.4 10 Noroeste 18 Norte 0 933.7 -0.7 69
2018-01-15 14:00:00 7.9 5 Norte 11 Nordeste 0 933.4 -0.5 66
2018-01-15 13:00:00 6.6 4 Nordeste 10 Nordeste 0 934.2 1.3 75
2018-01-15 12:00:00 6.1 3 Sudeste 9 Este 0 934.4 2.3 79
2018-01-15 11:00:00 3.4 3 Sudoeste 8 Este 0 933.9 2.5 95
2018-01-15 10:00:00 2.2 3 Este 10 Norte 0 932.9 2.1 98
2018-01-15 09:00:00 1.8 4 Norte 9 Norte 0 932.1 1.9 98
2018-01-15 08:00:00 1.8 3 Norte 5 Norte 0 931.4 1.8 98
2018-01-15 07:00:00 1.8 3 Norte 9 Norte 0 930.8 1.4 97
2018-01-15 06:00:00 1.8 4 Nordeste 7 Nordeste 0 930.2 0.7 97
2018-01-15 05:00:00 1.9 6 Norte 13 Noroeste 0 929.6 0.3 95
2018-01-15 04:00:00 2.3 3 Noroeste 10 Noroeste 0 929.4 0 93
2018-01-15 03:00:00 2.2 9 Norte 24 Oeste 0 929.5 0.3 94
2018-01-15 02:00:00 2.3 14 Oeste 24 Oeste 0 929.3 0.7 93
2018-01-15 01:00:00 2.4 14 Oeste 23 Oeste 0 929.4 1.4 93
2018-01-15 00:00:00 2.3 13 Oeste 23 Noroeste 0 929.2 1.8 94
2018-01-14 23:00:00 2.7 15 Oeste 24 Oeste 0 928.6 1.6 91
2018-01-14 22:00:00 2.6 15 Oeste 24 Oeste 0.2 928 1.7 94
2018-01-14 21:00:00 2.6 16 Oeste 26 Oeste 0 927.4 1.5 96
2018-01-14 20:00:00 3.3 11 Sudoeste 22 Oeste 0 927 1.1 93
2018-01-14 19:00:00 4 12 Oeste 18 Oeste 0 926.3 0.8 92
2018-01-14 18:00:00 4.7 4 Noroeste 19 Oeste 0.4 925.9 0.6 92
2018-01-14 17:00:00 5.2 11 Oeste 16 Oeste 0.6 925.9 0.1 87
2018-01-14 16:00:00 6.4 3 Noroeste 17 Oeste 0.2 925.5 -1.3 74
2018-01-14 15:00:00 8 9 Noroeste 18 Noroeste 0 925.3 -2.9 58
2018-01-14 14:00:00 9.1 10 Oeste 21 Oeste 0 925.8 -2.5 54
2018-01-14 13:00:00 8 10 Noroeste 16 Noroeste 0 926.8 -1.5 59
2018-01-14 12:00:00 6.8 3 Noroeste 8 Sudeste 0 928.2 0 71
2018-01-14 11:00:00 5.7 6 Sudeste 14 Sudeste 0 928.3 0.5 76
2018-01-14 10:00:00 4.8 3 Norte 16 Norte 0 928.3 0.5 77
2018-01-14 09:00:00 2.9 6 Norte 13 Norte 0 928.2 0.2 91
2018-01-14 08:00:00 3.4 7 Norte 13 Noroeste 0 927.8 -0.4 89
2018-01-14 07:00:00 3.8 10 Noroeste 17 Noroeste 0 927.8 -0.6 88
2018-01-14 06:00:00 3.8 4 Norte 10 Norte 0 928 -0.3 90
2018-01-14 05:00:00 3.5 4 Este 15 Noroeste 0 928.2 -0.5 93
2018-01-14 04:00:00 4 10 Noroeste 23 Noroeste 0 928.4 -0.7 93
2018-01-14 03:00:00 4.1 9 Noroeste 15 Noroeste 0 928.3 -1.1 91
2018-01-14 02:00:00 4.2 12 Noroeste 19 Noroeste 0 928.7 -0.2 86
2018-01-14 01:00:00 4.2 13 Noroeste 20 Noroeste 0 929.1 0.7 85
2018-01-14 00:00:00 3.8 8 Norte 27 Oeste 0 929.4 1 83
2018-01-13 23:00:00 4.7 6 Noroeste 17 Norte 0 928.9 0.6 82
2018-01-13 22:00:00 5.5 5 Este 30 Oeste 0 928.4 0.5 76
2018-01-13 21:00:00 5.2 6 Norte 18 Nordeste 0 928.4 0.1 81
2018-01-13 20:00:00 5 5 Este 25 Noroeste 0 928.3 0.5 79
2018-01-13 19:00:00 5.3 13 Norte 22 Norte 0 927.9 0.6 80
2018-01-13 18:00:00 6.7 14 Oeste 22 Oeste 0 928.3 1.6 72
2018-01-13 17:00:00 9.3 12 Oeste 27 Oeste 0 927.8 0.5 51
2018-01-13 16:00:00 8.7 15 Oeste 25 Noroeste 0 927.3 -0.5 55
2018-01-13 15:00:00 8 13 Noroeste 24 Noroeste 0 926.7 -2.2 50
2018-01-13 14:00:00 6 5 Norte 10 Norte 0 927.3 -2.2 68
2018-01-13 13:00:00 5.4 5 Norte 9 Noroeste 0 927.8 -1.4 70
2018-01-13 12:00:00 4.8 5 Norte 10 Noroeste 0 928.9 -0.1 68
2018-01-13 11:00:00 1.2 3 Sur 9 Sudeste 0 929.5 0.5 97
2018-01-13 10:00:00 -0.6 3 Sudeste 6 Sur 0 929.2 0.3 98
2018-01-13 09:00:00 -2.1 3 Sur 5 Sudoeste 0 929 -0.1 97
2018-01-13 08:00:00 -2.5 3 Sudoeste 5 Sudeste 0 929 -0.7 95
2018-01-13 07:00:00 -2.2 5 Oeste 9 Sudeste 0 928.9 -1.3 94
2018-01-13 06:00:00 -2.2 6 Sudeste 8 Sudeste 0 929.1 -1.1 95
2018-01-13 05:00:00 -1.5 3 Sudeste 8 Sur 0 929.7 -1 96
2018-01-13 04:00:00 -1.8 5 Sudeste 8 Sur 0 930.2 -1.2 93
2018-01-13 03:00:00 -1.4 5 Sudeste 7 Este 0 930.2 -2 90
2018-01-13 02:00:00 0.2 5 Sur 9 Sur 0 930.7 -1.8 90
2018-01-13 01:00:00 1 7 Sur 8 Sudeste 0 931.4 -1.2 90
2018-01-13 00:00:00 1.9 0 Calma 8 Sur 0 932.2 -0.3 88
2018-01-12 23:00:00 2.4 4 Sur 7 Sur 0 932.5 0.1 83
2018-01-12 22:00:00 3.1 5 Sur 8 Sudeste 0 932.6 0.5 77
2018-01-12 21:00:00 3.9 5 Sudeste 15 Sur 0 932.5 0.6 73
2018-01-12 20:00:00 5.1 8 Sur 14 Sur 0 932.4 0.7 66
2018-01-12 19:00:00 6.2 6 Sur 13 Oeste 0 932.1 0.3 62
2018-01-12 18:00:00 8.5 6 Noroeste 17 Oeste 0 931.9 -0.2 53
2018-01-12 17:00:00 10.3 11 Noroeste 18 Noroeste 0 931.7 -1.3 43
2018-01-12 16:00:00 10.4 10 Noroeste 20 Norte 0 931.8 -2.1 44
2018-01-12 15:00:00 9.3 15 Noroeste 25 Noroeste 0 932.1 -2.7 48
2018-01-12 14:00:00 8.9 18 Noroeste 31 Oeste 0 933 -1.6 53
2018-01-12 13:00:00 7.2 10 Noroeste 18 Noroeste 0 933.9 -0.4 56
2018-01-12 12:00:00 4.9 8 Nordeste 14 Norte 0 934.8 0.8 71
2018-01-12 11:00:00 2.6 7 Norte 9 Norte 0 934.6 1 77
2018-01-12 10:00:00 0.9 2 Norte 10 Sudoeste 0 934.3 0.9 77
2018-01-12 09:00:00 -0.6 5 Sur 23 Oeste 0 934 0.7 83
2018-01-12 08:00:00 0.7 9 Oeste 15 Oeste 0 933.6 0 81
2018-01-12 07:00:00 0.7 6 Sudeste 16 Oeste 0 933.4 -0.2 75
2018-01-12 06:00:00 3.6 8 Oeste 28 Oeste 0 933.3 -0.4 65
2018-01-12 05:00:00 2.7 12 Oeste 22 Oeste 0 933.6 -0.2 73
2018-01-12 04:00:00 2.5 11 Oeste 18 Oeste 0 933.6 -0.4 75
2018-01-12 03:00:00 2.7 9 Noroeste 19 Noroeste 0 933.7 -0.6 75
2018-01-12 02:00:00 3 10 Noroeste 16 Norte 0 933.8 -0.2 74
2018-01-12 01:00:00 2.9 9 Sudeste 26 Oeste 0 934 -0.3 75
2018-01-12 00:00:00 4 9 Oeste 34 Oeste 0 934.3 0.5 71
2018-01-11 23:00:00 4.7 24 Oeste 34 Oeste 0 934 0.2 70
2018-01-11 22:00:00 3.9 6 Sur 26 Oeste 0 934.3 1.2 74
2018-01-11 21:00:00 5 22 Oeste 36 Oeste 0 933.8 1.6 71
2018-01-11 20:00:00 4.8 14 Oeste 27 Oeste 0 933.8 1.6 75
2018-01-11 19:00:00 3.8 6 Noroeste 39 Oeste 0 933.1 2.1 79
2018-01-11 18:00:00 4.4 19 Oeste 45 Norte 0.4 932.2 1.5 82
2018-01-11 17:00:00 4 32 Noroeste 56 Noroeste 0.4 932.2 1.4 82
2018-01-11 16:00:00 7.5 25 Oeste 41 Oeste 0 931 -1 61
2018-01-11 15:00:00 7.1 24 Oeste 49 Oeste 0.2 930.7 -2.3 75
2018-01-11 14:00:00 7.1 23 Noroeste 38 Oeste 0 930.8 -2.2 75
2018-01-11 13:00:00 5.8 21 Oeste 43 Oeste 0.2 932 -0.8 84
2018-01-11 12:00:00 6.5 23 Oeste 41 Oeste 0 933 0.7 73
2018-01-11 11:00:00 5.7 23 Oeste 36 Oeste 0 933 0.6 72
2018-01-11 10:00:00 4.5 21 Oeste 33 Noroeste 0 932.8 0.2 74
2018-01-11 09:00:00 3 19 Oeste 29 Oeste 0 932.3 0.1 83
2018-01-11 08:00:00 3.2 15 Oeste 28 Oeste 0 932.4 0.7 81
2018-01-11 07:00:00 3.3 16 Oeste 28 Oeste 0 932.6 1 79
2018-01-11 06:00:00 4.4 20 Oeste 35 Oeste 0 932.2 1 77
2018-01-11 05:00:00 4.9 27 Oeste 43 Oeste 0 931.7 0.4 75
2018-01-11 04:00:00 5.7 27 Oeste 44 Oeste 0 931.6 0.1 71
2018-01-11 03:00:00 6.2 26 Oeste 45 Oeste 0 931.2 -0.3 73
2018-01-11 02:00:00 6.7 30 Oeste 46 Oeste 0 931.3 1.2 74
2018-01-11 01:00:00 7.1 23 Oeste 46 Oeste 0.2 931.5 1.8 85
2018-01-11 00:00:00 7.6 28 Oeste 52 Oeste 0 931.5 1.6 85
2018-01-10 23:00:00 8.8 27 Oeste 50 Oeste 0.4 930.1 -0.4 84
2018-01-10 22:00:00 9.5 30 Oeste 50 Sudoeste 0 929.7 -1 68
2018-01-10 21:00:00 8.6 24 Oeste 41 Oeste 0 929.9 -0.6 65
2018-01-10 20:00:00 8.3 18 Oeste 40 Oeste 0 930.5 0.3 65
2018-01-10 19:00:00 8.6 23 Oeste 40 Oeste 0 930.7 1 66
2018-01-10 18:00:00 9.2 25 Oeste 40 Oeste 0 930.5 1.1 62
2018-01-10 17:00:00 9.5 27 Oeste 47 Oeste 0 930.2 1.1 69
2018-01-10 16:00:00 10.3 27 Oeste 47 Noroeste 0 929.7 0.1 70
2018-01-10 15:00:00 10.4 26 Noroeste 49 Oeste 0 929.4 -1 70
2018-01-10 14:00:00 10.6 29 Oeste 51 Noroeste 0 929.1 -0.9 60
2018-01-10 13:00:00 10.7 26 Oeste 42 Oeste 0 929.6 0.4 67
2018-01-10 12:00:00 7.9 14 Noroeste 31 Noroeste 0 930.4 1.8 92
2018-01-10 11:00:00 8.1 17 Noroeste 27 Noroeste 0 930 2.2 88
2018-01-10 10:00:00 7.6 5 Norte 24 Oeste 0 929.2 2.7 86
2018-01-10 09:00:00 7.7 14 Oeste 47 Oeste 0.2 928.6 1.6 79
2018-01-10 08:00:00 4.4 6 Noroeste 16 Este 0 927.8 1 98
2018-01-10 07:00:00 3.2 4 Este 11 Este 0 926.5 -0.4 98
2018-01-10 06:00:00 3.2 3 Noroeste 10 Norte 2.4 927 -0.2 98
2018-01-10 05:00:00 3.1 5 Norte 19 Norte 1.4 926.8 -0.8 98
2018-01-10 04:00:00 3.4 5 Sudoeste 17 Norte 1 926.9 -1.6 97
2018-01-10 03:00:00 3.5 10 Norte 22 Norte 0.8 927.2 -1.6 96
2018-01-10 02:00:00 3.7 2 Sudeste 7 Este 0 927.6 -1.4 96
2018-01-10 01:00:00 3.8 4 Este 6 Sudeste 0.2 928.5 -0.6 94
2018-01-10 00:00:00 4 2 Oeste 10 Sudoeste 0.8 928.8 -0.3 90
2018-01-09 23:00:00 4.1 6 Sur 11 Sudoeste 0.4 929 0 83
2018-01-09 22:00:00 4 6 Sur 9 Sur 0 929.1 0.3 79
2018-01-09 21:00:00 4.4 4 Sur 9 Sur 0 929.1 0.5 76
2018-01-09 20:00:00 5.2 3 Oeste 10 Oeste 0 929 0.9 65
2018-01-09 19:00:00 5.6 3 Sudoeste 19 Norte 0 928.8 0.6 64
2018-01-09 18:00:00 5.9 12 Noroeste 22 Noroeste 0 928.6 0.5 67
2018-01-09 17:00:00 6.5 12 Noroeste 21 Oeste 0 928.1 -0.7 63
2018-01-09 16:00:00 6.6 10 Noroeste 21 Noroeste 0 928.2 -1 67
2018-01-09 15:00:00 6.1 6 Oeste 12 Oeste 0 928.1 -1.7 66
2018-01-09 14:00:00 5.8 4 Noroeste 7 Norte 0 928.8 -0.7 70
2018-01-09 13:00:00 4.6 3 Norte 10 Noroeste 0 929.2 0.2 77
2018-01-09 12:00:00 3.3 6 Noroeste 8 Noroeste 0 929.8 1.3 78
2018-01-09 11:00:00 1 3 Nordeste 9 Sur 0 929.5 2 95
2018-01-09 10:00:00 -1.6 6 Sur 9 Sur 0 929 2.3 98
2018-01-09 09:00:00 -3.2 2 Oeste 5 Noroeste 0 928.5 2.2 96
2018-01-09 08:00:00 -3.3 3 Oeste 9 Sur 0 927.5 1.8 96
2018-01-09 07:00:00 -3.6 7 Sur 8 Sur 0 926.7 1.1 96
2018-01-09 06:00:00 -3.1 0 Calma 7 Sur 0 926.3 1.3 96
2018-01-09 05:00:00 -2.9 5 Sur 9 Sudeste 0 925.7 1.1 95
2018-01-09 04:00:00 -2 4 Oeste 9 Sur 0 925.6 1.1 95
2018-01-09 03:00:00 -2 3 Sudoeste 10 Sudeste 0 925 0.8 92
2018-01-09 02:00:00 -1 9 Sur 13 Sudeste 0 924.6 0.8 91
2018-01-09 01:00:00 0 8 Sur 12 Sur 0 924.5 1.3 90
2018-01-09 00:00:00 0.3 7 Sur 11 Sudeste 0 924.2 1.3 90
2018-01-08 23:00:00 1 7 Sudoeste 13 Sudeste 0 923.8 1.7 89
2018-01-08 22:00:00 2.1 5 Sudeste 9 Sur 0 923.2 2.2 83
2018-01-08 21:00:00 3.7 8 Sur 17 Sur 0 922.9 2.8 79
2018-01-08 20:00:00 4.8 8 Sur 15 Sudoeste 0 922.1 2.5 70
2018-01-08 19:00:00 4.5 9 Sudeste 13 Sudeste 0 921 1.9 72
2018-01-08 18:00:00 7.6 6 Oeste 10 Oeste 0 920.1 1.2 56
2018-01-08 17:00:00 9.5 3 Norte 10 Noroeste 0 919.6 0.5 45
2018-01-08 16:00:00 9.1 3 Sudoeste 8 Oeste 0 919.1 -0.3 47
2018-01-08 15:00:00 7.8 4 Oeste 10 Noroeste 0 918.9 -0.6 53
2018-01-08 14:00:00 7.4 5 Noroeste 15 Norte 0 919.1 -0.4 56
2018-01-08 13:00:00 6.1 8 Noroeste 17 Noroeste 0 919.4 0.3 64
2018-01-08 12:00:00 4.4 8 Norte 14 Norte 0 919.5 0.9 73
2018-01-08 11:00:00 2.1 4 Norte 7 Norte 0 919.5 1.2 89
2018-01-08 10:00:00 0 3 Sur 6 Sur 0 919.1 1.3 98
2018-01-08 09:00:00 -2.1 4 Sudeste 7 Sudeste 0 918.6 1.5 97
2018-01-08 08:00:00 -1.3 2 Oeste 4 Oeste 0 918.3 1.9 97
2018-01-08 07:00:00 -1.1 3 Sur 5 Sudeste 0 917.8 1.7 97
2018-01-08 06:00:00 -1.4 3 Sudoeste 8 Sudeste 0 917.1 1.2 96
2018-01-08 05:00:00 -2.1 7 Sudeste 9 Sudeste 0 916.4 0.8 95
2018-01-08 04:00:00 -1.5 3 Este 6 Sudeste 0 916.1 0.5 92
2018-01-08 03:00:00 -0.5 5 Sudeste 7 Sur 0 915.9 0.4 91
2018-01-08 02:00:00 0.7 6 Sudeste 8 Sudoeste 0 915.6 0.6 89
2018-01-08 01:00:00 1.4 4 Oeste 12 Oeste 0 915.6 1 85
2018-01-08 00:00:00 2 8 Oeste 14 Oeste 0 915.5 1.3 83
2018-01-07 23:00:00 2.8 11 Noroeste 19 Oeste 0 915 1.2 77
2018-01-07 22:00:00 3 10 Noroeste 23 Oeste 0 914.6 1.6 77
2018-01-07 21:00:00 3.2 13 Oeste 26 Oeste 0 914.2 1.8 76
2018-01-07 20:00:00 3.5 15 Oeste 24 Oeste 0 913.8 2.3 73
2018-01-07 19:00:00 4.2 15 Oeste 26 Oeste 0 913 1.8 67
2018-01-07 18:00:00 5.6 7 Oeste 11 Noroeste 0 912.4 1.6 54
2018-01-07 17:00:00 6.4 5 Noroeste 11 Norte 0 911.5 0.7 50
2018-01-07 16:00:00 6.8 4 Noroeste 17 Norte 0 911.2 0 48
2018-01-07 15:00:00 7.3 8 Noroeste 14 Norte 0 910.8 -0.9 48
2018-01-07 14:00:00 6.9 4 Nordeste 15 Nordeste 0 910.8 -0.8 47
2018-01-07 13:00:00 5.5 7 Norte 17 Norte 0 911.2 0.2 56
2018-01-07 12:00:00 3.8 8 Norte 14 Norte 0 911.7 1.3 66
2018-01-07 11:00:00 1.8 8 Norte 12 Norte 0 911.6 2 73
2018-01-07 10:00:00 0.5 4 Sudeste 11 Sudeste 0 911 1.4 73
2018-01-07 09:00:00 -0.6 5 Sudeste 19 Oeste 0 910.4 0.9 80
2018-01-07 08:00:00 1 14 Oeste 21 Oeste 0 909.6 0.2 70
2018-01-07 07:00:00 1 9 Noroeste 20 Norte 0 909.6 0.1 72
2018-01-07 06:00:00 1.1 14 Norte 22 Norte 0 909.5 -0.4 71
2018-01-07 05:00:00 0.8 4 Nordeste 20 Noroeste 0 909.4 -0.3 73
2018-01-07 04:00:00 2.5 6 Sudoeste 28 Oeste 0 909.5 -0.2 62
2018-01-07 03:00:00 2.9 8 Sudoeste 26 Sudoeste 0 909.9 0 66
2018-01-07 02:00:00 3 15 Oeste 30 Oeste 0 909.7 -0.2 70
2018-01-07 01:00:00 3.5 17 Oeste 35 Oeste 0 909.7 -0.2 71
2018-01-07 00:00:00 3.4 16 Oeste 30 Oeste 0 909.9 0.6 77
2018-01-06 23:00:00 3.2 9 Oeste 25 Oeste 0 909.9 0.3 81
2018-01-06 22:00:00 3.6 19 Oeste 32 Sudoeste 0 909.9 0.7 81
2018-01-06 21:00:00 3.2 22 Oeste 34 Oeste 0 909.3 0.7 87
2018-01-06 20:00:00 3.7 21 Oeste 32 Oeste 0 909.6 1.6 85
2018-01-06 19:00:00 3.2 13 Oeste 38 Oeste 0.2 909.2 1.9 92
2018-01-06 18:00:00 2.8 23 Noroeste 35 Noroeste 0 908.6 2.1 93
2018-01-06 17:00:00 3.3 19 Noroeste 34 Noroeste 0 908 2.3 90
2018-01-06 16:00:00 4.6 18 Oeste 46 Oeste 0.2 907.3 1 87
2018-01-06 15:00:00 4.7 26 Oeste 44 Oeste 0.2 906.5 -0.3 90
2018-01-06 14:00:00 7 7 Noroeste 14 Oeste 0 905.7 -1.6 92
2018-01-06 13:00:00 5.1 7 Este 31 Oeste 2.4 906.3 -1.6 93
2018-01-06 12:00:00 7.3 15 Oeste 22 Oeste 0 906.8 -0.7 72
2018-01-06 11:00:00 4.8 5 Noroeste 13 Noroeste 0 907.3 -1.6 82
2018-01-06 10:00:00 3.7 6 Noroeste 19 Oeste 0 907.9 -2 86
2018-01-06 09:00:00 2 4 Sudeste 18 Este 0 907.5 -3.1 98
2018-01-06 08:00:00 0.8 6 Sudeste 15 Oeste 0 908.9 -2.8 98
2018-01-06 07:00:00 0.5 5 Nordeste 13 Noroeste 0 909.9 -2.9 98
2018-01-06 06:00:00 0.3 4 Norte 8 Noroeste 0 910.6 -3.5 97
2018-01-06 05:00:00 0.5 5 Sudoeste 9 Noroeste 0 911.7 -4 97
2018-01-06 04:00:00 0.2 2 Sur 11 Sudeste 0 912.8 -4.4 96
2018-01-06 03:00:00 0.7 8 Sur 10 Sudeste 0 914.1 -3.9 96
2018-01-06 02:00:00 0.7 6 Sudeste 12 Sur 0 915.7 -2.8 94
2018-01-06 01:00:00 1.4 8 Sur 14 Sur 0 917.2 -1.9 94
2018-01-06 00:00:00 2.1 8 Sudeste 14 Sudeste 0 918 -1.3 93
2018-01-05 23:00:00 2.5 9 Sur 14 Sudeste 0 918.5 -1.7 89
2018-01-05 22:00:00 4.9 5 Sur 13 Sur 0 919.1 -1.4 80
2018-01-05 21:00:00 8.6 8 Oeste 23 Noroeste 0 919.3 -1.6 67
2018-01-05 20:00:00 8.7 13 Noroeste 28 Noroeste 0 920.2 -1.5 68
2018-01-05 19:00:00 8.5 7 Norte 23 Noroeste 0 920.5 -1.7 67
2018-01-05 18:00:00 10.3 12 Noroeste 29 Noroeste 0 920.9 -1.8 60
2018-01-05 17:00:00 12.4 15 Oeste 34 Oeste 0 921.7 -2.1 52
2018-01-05 16:00:00 12.6 20 Noroeste 39 Noroeste 0 922.2 -3 53
2018-01-05 15:00:00 12.8 24 Oeste 38 Noroeste 0 922.7 -4.4 52
2018-01-05 14:00:00 12.3 22 Noroeste 35 Noroeste 0 923.8 -4.3 55
2018-01-05 13:00:00 12.1 17 Noroeste 30 Noroeste 0 925.2 -2.9 57
2018-01-05 12:00:00 9.9 16 Oeste 32 Oeste 0 927.1 -0.9 66
2018-01-05 11:00:00 9.5 13 Oeste 34 Oeste 0 928.1 -0.1 68
2018-01-05 10:00:00 8.3 21 Oeste 40 Oeste 0 928.1 -0.2 75
2018-01-05 09:00:00 7.3 15 Oeste 29 Oeste 0 928 -0.5 80
2018-01-05 08:00:00 7.4 21 Oeste 33 Oeste 0 928.2 -1.1 81
2018-01-05 07:00:00 7.6 21 Sudoeste 34 Oeste 0 928.3 -1.9 83
2018-01-05 06:00:00 8 22 Oeste 39 Oeste 0 928.5 -2.5 82
2018-01-05 05:00:00 8.2 23 Oeste 34 Oeste 0 929.3 -2.3 83
2018-01-05 04:00:00 7.5 4 Oeste 16 Oeste 0 930.2 -2.5 88
2018-01-05 03:00:00 7.4 4 Noroeste 25 Oeste 0 931 -2.8 90
2018-01-05 02:00:00 8 12 Oeste 18 Oeste 0 931.6 -2.4 90
2018-01-05 01:00:00 8.5 13 Noroeste 28 Oeste 0 932.7 -1.9 91
2018-01-05 00:00:00 8.8 15 Oeste 34 Oeste 0 933.8 -0.8 92
2018-01-04 23:00:00 8.6 25 Oeste 43 Oeste 0 934 -0.5 92
2018-01-04 22:00:00 7.5 19 Oeste 34 Oeste 0 934.6 0.2 98
2018-01-04 21:00:00 6.8 17 Oeste 30 Oeste 0 934.6 0.4 97
2018-01-04 20:00:00 7.4 19 Oeste 32 Oeste 0 934.5 -0.1 92
2018-01-04 19:00:00 8.6 3 Norte 26 Oeste 0 934.4 -0.4 84
2018-01-04 18:00:00 10.2 20 Oeste 32 Oeste 0 934.2 -1.1 77
2018-01-04 17:00:00 12.8 22 Oeste 36 Oeste 0 934.6 -1.5 65
2018-01-04 16:00:00 13.6 25 Oeste 37 Oeste 0 934.8 -2.7 63
2018-01-04 15:00:00 11.2 4 Norte 12 Norte 0 935.3 -3.4 75
2018-01-04 14:00:00 9 0 Calma 8 Norte 0 936.1 -3.1 90
2018-01-04 13:00:00 6.3 4 Oeste 6 Oeste 0 937.5 -1.5 98
2018-01-04 12:00:00 5.4 2 Sur 7 Sudoeste 0 938.7 -0.2 98
2018-01-04 11:00:00 4.9 3 Sudeste 6 Sudeste 0 939.2 0.3 98
2018-01-04 10:00:00 4.6 4 Sur 8 Sur 0 939 -0.1 98
2018-01-04 09:00:00 4.5 2 Sudoeste 8 Sudeste 0 938.9 -0.1 98
2018-01-04 08:00:00 4.6 5 Sudeste 9 Sudeste 0 938.9 -0.4 98
2018-01-04 07:00:00 4.7 5 Sur 10 Sur 0 939.1 -0.9 98
2018-01-04 06:00:00 4.9 6 Sur 10 Sur 0 939 -1.3 98
2018-01-04 05:00:00 5 5 Sudoeste 12 Sur 0 939.3 -1.1 98
2018-01-04 04:00:00 5.3 5 Sur 15 Oeste 0 940 -0.3 98
2018-01-04 03:00:00 5.8 3 Oeste 9 Oeste 0 940.3 -0.5 98
2018-01-04 02:00:00 5.5 0 Calma 5 Este 0 940.4 -0.3 98
2018-01-04 01:00:00 5.3 0 Calma 8 Sur 0 940.3 -0.8 97
2018-01-04 00:00:00 4.7 4 Este 6 Este 0 940.8 -0.2 97
2018-01-03 23:00:00 4.7 3 Nordeste 8 Sur 0 940.7 0 96
2018-01-03 22:00:00 3.4 5 Sudeste 12 Sur 0 941.1 1.2 95
2018-01-03 21:00:00 4.6 8 Sudeste 12 Sudoeste 0 941 0.9 92
2018-01-03 20:00:00 6.2 4 Norte 8 Norte 0 940.7 1 89
2018-01-03 19:00:00 7.8 4 Sudeste 12 Noroeste 0 939.9 0.1 83
2018-01-03 18:00:00 9.8 5 Norte 19 Noroeste 0 940.1 -0.2 75
2018-01-03 17:00:00 11 3 Noroeste 13 Norte 0 939.7 -1.7 72
2018-01-03 16:00:00 10.8 7 Norte 12 Norte 0 939.8 -2.5 71
2018-01-03 15:00:00 10.2 3 Oeste 17 Norte 0 940.3 -2.8 74
2018-01-03 14:00:00 8.6 4 Norte 9 Norte 0 941.4 -1.7 83
2018-01-03 13:00:00 6.7 3 Nordeste 7 Norte 0 942.3 -0.5 90
2018-01-03 12:00:00 5.9 4 Norte 9 Norte 0 943.1 0.9 93
2018-01-03 11:00:00 4.7 2 Norte 10 Este 0 943.1 1.2 98
2018-01-03 10:00:00 2.3 4 Sudeste 12 Noroeste 0 942.8 1.3 98
2018-01-03 09:00:00 -0.1 5 Sudeste 12 Sur 0 942.2 0.8 97
2018-01-03 08:00:00 -0.5 9 Sudeste 12 Sudeste 0 941.9 0.4 97
2018-01-03 07:00:00 -0.5 4 Sudeste 9 Sudeste 0 941.5 -0.2 95
2018-01-03 06:00:00 0.4 4 Oeste 8 Sudeste 0 941.4 -0.3 95
2018-01-03 05:00:00 1.1 4 Sur 8 Sur 0 941.5 -0.1 91
2018-01-03 04:00:00 2.5 3 Sur 10 Sudoeste 0 941.7 -0.1 88
2018-01-03 03:00:00 3.4 3 Oeste 15 Sur 0 941.7 -0.1 87
2018-01-03 02:00:00 4.3 8 Sur 20 Oeste 0 941.6 0.2 81
2018-01-03 01:00:00 4.7 8 Sudoeste 18 Oeste 0 941.8 0.3 80
2018-01-03 00:00:00 3.6 3 Norte 10 Nordeste 0 941.8 0.4 91
2018-01-02 23:00:00 4.2 6 Norte 10 Oeste 0 941.4 -0.1 85
2018-01-02 22:00:00 5.7 4 Sur 25 Oeste 0 941.5 0.3 79
2018-01-02 21:00:00 6.8 17 Oeste 28 Oeste 0 941.4 0.5 77
2018-01-02 20:00:00 6.8 5 Sudoeste 23 Oeste 0 941.5 1.2 76
2018-01-02 19:00:00 8 13 Noroeste 29 Noroeste 0 941.2 1.3 71
2018-01-02 18:00:00 8.3 16 Noroeste 40 Oeste 0 940.9 0.6 71
2018-01-02 17:00:00 9.7 29 Oeste 46 Oeste 0 940.3 -0.3 64
2018-01-02 16:00:00 10.8 24 Oeste 42 Oeste 0 939.9 -1 60
2018-01-02 15:00:00 10.4 18 Oeste 41 Oeste 0 940.3 -1 61
2018-01-02 14:00:00 10.2 23 Noroeste 41 Oeste 0 940.6 -1.2 63
2018-01-02 13:00:00 9.6 24 Oeste 46 Oeste 0 940.9 -0.2 63
2018-01-02 12:00:00 8.6 30 Oeste 45 Oeste 0 941.3 0.3 66
2018-01-02 11:00:00 6.7 25 Oeste 36 Oeste 0 941.8 1 72
2018-01-02 10:00:00 4.4 4 Norte 28 Oeste 0 941.1 0.5 68
2018-01-02 09:00:00 4.6 17 Oeste 28 Oeste 0 941 0.3 68
2018-01-02 08:00:00 5.1 15 Oeste 35 Oeste 0 940.8 -0.5 62
2018-01-02 07:00:00 5 25 Oeste 35 Oeste 0 940.6 -1 60
2018-01-02 06:00:00 3.8 9 Oeste 20 Oeste 0 940.7 -0.5 76
2018-01-02 05:00:00 4.2 5 Sudoeste 10 Sudoeste 0 941.3 -0.5 66
2018-01-02 04:00:00 5.6 4 Nordeste 21 Norte 0 941.6 -0.4 60
2018-01-02 03:00:00 6.7 11 Noroeste 24 Oeste 0 941.2 -0.7 62
2018-01-02 02:00:00 7.4 9 Oeste 15 Oeste 0 941.8 0.2 64
2018-01-02 01:00:00 7 6 Noroeste 39 Oeste 0 942 0.4 52
2018-01-02 00:00:00 7.8 20 Oeste 31 Oeste 0 941.9 0.6 47
2018-01-01 23:00:00 6.8 23 Oeste 41 Oeste 0 941.6 0.8 50
2018-01-01 22:00:00 7.6 27 Oeste 45 Oeste 0 941.6 1.1 48
2018-01-01 21:00:00 7.9 27 Oeste 37 Oeste 0 941.3 1.2 41
2018-01-01 20:00:00 8.2 26 Oeste 38 Noroeste 0 940.8 0.6 36
2018-01-01 19:00:00 9.3 23 Noroeste 35 Noroeste 0 940.5 1.1 35
2018-01-01 18:00:00 10.1 14 Noroeste 28 Noroeste 0 940.1 0.1 28
2018-01-01 17:00:00 12.8 19 Noroeste 35 Noroeste 0 940.2 -0.8 19
2018-01-01 16:00:00 13.9 19 Noroeste 32 Noroeste 0 939.4 -2.6 18
2018-01-01 15:00:00 13.9 15 Noroeste 25 Oeste 0 940 -2.7 23
2018-01-01 14:00:00 13.5 17 Oeste 28 Oeste 0 941 -1.7 17
2018-01-01 13:00:00 11.6 13 Oeste 21 Noroeste 0 942 -0.4 35
2018-01-01 12:00:00 7.6 7 Norte 12 Norte 0 942.7 0.6 67
2018-01-01 11:00:00 4.4 4 Noroeste 8 Noroeste 0 942.7 1.2 68
2018-01-01 10:00:00 1.8 3 Sur 7 Este 0 942.4 1.1 75
2018-01-01 09:00:00 0.1 5 Sur 13 Sudeste 0 942.1 1.1 77
2018-01-01 08:00:00 1.2 11 Sur 14 Sudeste 0 941.5 0.8 75
2018-01-01 07:00:00 5.2 6 Sudoeste 19 Oeste 0 941.3 0.3 66
2018-01-01 06:00:00 5.2 4 Nordeste 15 Oeste 0 941 -0.2 70
2018-01-01 05:00:00 7.2 15 Oeste 39 Oeste 0 940.7 0.2 64
2018-01-01 04:00:00 7.3 19 Oeste 38 Oeste 0 941 1.1 67
2018-01-01 03:00:00 8.3 8 Oeste 18 Sudoeste 0 941.2 1.9 64
2018-01-01 02:00:00 7.7 10 Oeste 21 Noroeste 0 940.5 1.9 66
2018-01-01 01:00:00 8.1 10 Norte 35 Oeste 0 939.9 2.1 65
2018-01-01 00:00:00 9.5 26 Oeste 45 Oeste 0 939.3 2.4 64
2017-12-31 23:00:00 10.2 26 Oeste 42 Noroeste 0 938.6 2.7 78
2017-12-31 22:00:00 10.9 18 Oeste 32 Oeste 0 937.8 2.5 71
2017-12-31 21:00:00 10.8 13 Oeste 31 Oeste 0 936.9 2.4 69
2017-12-31 20:00:00 10.8 13 Oeste 32 Sudoeste 0 935.9 1.4 64
2017-12-31 19:00:00 10.4 16 Oeste 31 Oeste 0 935.3 1.3 69
2017-12-31 18:00:00 10.9 18 Oeste 38 Oeste 0 934.5 1 68
2017-12-31 17:00:00 11 17 Noroeste 32 Oeste 0 934.5 0.8 77
2017-12-31 16:00:00 12.4 16 Noroeste 34 Oeste 0 934 -0.6 71
2017-12-31 15:00:00 12.8 14 Oeste 39 Noroeste 0 933.5 -1.9 67
2017-12-31 14:00:00 11.4 18 Noroeste 32 Oeste 0 933.7 -1.9 73
2017-12-31 13:00:00 9.7 20 Noroeste 32 Oeste 0 934.6 -0.5 82
2017-12-31 12:00:00 5.4 2 Norte 9 Noroeste 0 935.4 0.6 98
2017-12-31 11:00:00 3.4 3 Sudoeste 6 Oeste 0 935.6 0.7 98
2017-12-31 10:00:00 2.3 3 Norte 8 Norte 0 935.1 0.6 98
2017-12-31 09:00:00 1.4 4 Oeste 8 Sudeste 0 934.8 0 99
2017-12-31 08:00:00 0.6 5 Sudeste 9 Sudeste 0 934.9 0 98
2017-12-31 07:00:00 1.6 3 Sur 8 Sudeste 0 934.5 -0.8 98
2017-12-31 06:00:00 0.7 3 Sudoeste 6 Noroeste 0 934.8 -1 97
2017-12-31 05:00:00 0.8 3 Sur 8 Sudeste 0 934.9 -1 97
2017-12-31 04:00:00 1.2 5 Sur 8 Sudeste 0 935.3 -1.1 97
2017-12-31 03:00:00 1.7 3 Sudoeste 7 Sudeste 0 935.8 -1 96
2017-12-31 02:00:00 2 6 Sur 9 Sudeste 0 935.9 -1 96
2017-12-31 01:00:00 2.6 5 Sur 8 Sudeste 0 936.4 -0.4 95